createdAt,value
2019-02-04T00:01:29.768Z,98886.23
2019-02-04T00:03:59.371Z,98891.43
2019-02-04T00:06:28.840Z,98890.75
2019-02-04T00:08:58.489Z,98897.05
2019-02-04T00:11:28.038Z,98897.63
2019-02-04T00:13:57.982Z,98901.17
2019-02-04T00:16:27.763Z,98905.33
2019-02-04T00:18:57.346Z,98896.59
2019-02-04T00:21:27.017Z,98906.66
2019-02-04T00:23:56.718Z,98901.04
2019-02-04T00:26:26.213Z,98910.19
2019-02-04T00:28:55.697Z,98911.23
2019-02-04T00:31:25.199Z,98913.17
2019-02-04T00:33:54.731Z,98912.73
2019-02-04T00:36:24.226Z,98918.47
2019-02-04T00:38:53.708Z,98923.15
2019-02-04T00:41:23.384Z,98923.84
2019-02-04T00:43:53.010Z,98926.28
2019-02-04T00:46:22.512Z,98936.00
2019-02-04T00:48:52.095Z,98934.71
2019-02-04T00:51:21.762Z,98940.63
2019-02-04T00:53:51.297Z,98941.63
2019-02-04T00:56:20.901Z,98944.31
2019-02-04T00:58:50.715Z,98941.52
2019-02-04T01:01:20.202Z,98942.19
2019-02-04T01:03:49.755Z,98950.11
2019-02-04T01:06:19.435Z,98945.65
2019-02-04T01:08:50.185Z,98958.48
2019-02-04T01:11:19.827Z,98956.87
2019-02-04T01:13:49.409Z,98960.53
2019-02-04T01:16:19.058Z,98970.44
2019-02-04T01:18:48.803Z,98969.34
2019-02-04T01:21:18.535Z,98970.70
2019-02-04T01:23:48.010Z,98972.38
2019-02-04T01:26:17.562Z,98976.84
2019-02-04T01:28:47.032Z,98974.96
2019-02-04T01:31:16.566Z,98977.03
2019-02-04T01:33:46.283Z,98983.67
2019-02-04T01:36:15.856Z,98989.38
2019-02-04T01:38:45.509Z,98990.33
2019-02-04T01:41:15.197Z,98992.55
2019-02-04T01:43:44.719Z,98993.32
2019-02-04T01:46:14.180Z,99000.92
2019-02-04T01:48:43.815Z,99002.45
2019-02-04T01:51:13.288Z,99000.66
2019-02-04T01:53:42.770Z,99004.29
2019-02-04T01:56:12.450Z,99003.66
2019-02-04T01:58:42.114Z,99007.75
2019-02-04T02:01:11.698Z,99006.05
2019-02-04T02:03:41.274Z,99011.44
2019-02-04T02:06:10.966Z,99008.30
2019-02-04T02:08:40.977Z,99015.95
2019-02-04T02:11:10.810Z,99013.55
2019-02-04T02:13:40.505Z,99008.66
2019-02-04T02:16:10.023Z,99013.56
2019-02-04T02:18:39.737Z,99015.87
2019-02-04T02:21:09.345Z,99011.75
2019-02-04T02:23:38.878Z,99016.41
2019-02-04T02:26:08.410Z,99024.36
2019-02-04T02:28:38.255Z,99022.89
2019-02-04T02:31:07.828Z,99018.14
2019-02-04T02:33:37.393Z,99023.87
2019-02-04T02:36:07.356Z,99022.76
2019-02-04T02:38:36.824Z,99026.61
2019-02-04T02:41:06.320Z,99029.27
2019-02-04T02:43:35.767Z,99030.08
2019-02-04T02:46:05.905Z,99031.92
2019-02-04T02:48:35.636Z,99038.27
2019-02-04T02:51:05.578Z,99035.91
2019-02-04T02:53:35.056Z,99031.11
2019-02-04T02:56:04.823Z,99038.19
2019-02-04T02:58:34.338Z,99041.69
2019-02-04T03:01:03.989Z,99030.84
2019-02-04T03:03:33.785Z,99034.02
2019-02-04T03:06:03.236Z,99033.41
2019-02-04T03:08:32.723Z,99036.41
2019-02-04T03:11:02.224Z,99038.17
2019-02-04T03:13:31.882Z,99042.44
2019-02-04T03:16:01.368Z,99051.28
2019-02-04T03:18:31.104Z,99051.58
2019-02-04T03:21:00.642Z,99053.56
2019-02-04T03:23:30.099Z,99048.91
2019-02-04T03:25:59.574Z,99051.36
2019-02-04T03:28:29.049Z,99057.19
2019-02-04T03:30:58.586Z,99058.52
2019-02-04T03:33:28.278Z,99062.80
2019-02-04T03:35:57.729Z,99063.44
2019-02-04T03:38:27.228Z,99076.11
2019-02-04T03:40:56.697Z,99086.09
2019-02-04T03:43:26.179Z,99089.14
2019-02-04T03:45:55.795Z,99083.02
2019-02-04T03:48:25.353Z,99088.14
2019-02-04T03:50:54.887Z,99095.59
2019-02-04T03:53:24.369Z,99098.64
2019-02-04T03:55:53.827Z,99098.84
2019-02-04T03:58:23.357Z,99105.16
2019-02-04T04:00:53.303Z,99119.45
2019-02-04T04:03:22.789Z,99122.72
2019-02-04T04:05:52.246Z,99120.47
2019-02-04T04:08:21.834Z,99128.12
2019-02-04T04:10:51.293Z,99129.46
2019-02-04T04:13:20.767Z,99132.34
2019-02-04T04:15:50.255Z,99140.98
2019-02-04T04:18:19.737Z,99144.17
2019-02-04T04:20:49.219Z,99136.30
2019-02-04T04:23:18.708Z,99136.44
2019-02-04T04:25:48.224Z,99142.75
2019-02-04T04:28:17.664Z,99139.68
2019-02-04T04:30:47.123Z,99141.31
2019-02-04T04:33:16.925Z,99146.98
2019-02-04T04:35:46.392Z,99147.87
2019-02-04T04:38:16.033Z,99146.87
2019-02-04T04:40:45.490Z,99150.12
2019-02-04T04:43:15.227Z,99146.34
2019-02-04T04:45:44.723Z,99140.37
2019-02-04T04:48:14.201Z,99151.91
2019-02-04T04:50:43.717Z,99148.77
2019-02-04T04:53:13.222Z,99152.31
2019-02-04T04:55:42.804Z,99157.00
2019-02-04T04:58:12.376Z,99158.77
2019-02-04T05:00:41.897Z,99157.13
2019-02-04T05:03:11.677Z,99163.94
2019-02-04T05:05:41.132Z,99165.56
2019-02-04T05:08:10.636Z,99169.06
2019-02-04T05:10:40.091Z,99169.06
2019-02-04T05:13:09.580Z,99178.31
2019-02-04T05:15:39.097Z,99181.88
2019-02-04T05:18:08.624Z,99190.24
2019-02-04T05:20:38.084Z,99193.91
2019-02-04T05:23:07.531Z,99194.29
2019-02-04T05:25:37.401Z,99195.72
2019-02-04T05:28:07.936Z,99198.20
2019-02-04T05:30:37.414Z,99198.74
2019-02-04T05:33:06.879Z,99195.72
2019-02-04T05:35:36.373Z,99205.73
2019-02-04T05:38:07.107Z,99193.30
2019-02-04T05:40:36.572Z,99186.92
2019-02-04T05:43:06.071Z,99189.11
2019-02-04T05:45:35.637Z,99180.77
2019-02-04T05:48:05.143Z,99185.75
2019-02-04T05:50:34.603Z,99187.33
2019-02-04T05:53:04.858Z,99187.33
2019-02-04T05:55:34.312Z,99201.36
2019-02-04T05:58:03.776Z,99201.36
2019-02-04T06:00:42.927Z,99195.77
2019-02-04T06:03:12.430Z,99199.30
2019-02-04T06:05:42.302Z,99199.30
2019-02-04T06:08:11.762Z,99195.83
2019-02-04T06:10:41.420Z,99198.78
2019-02-04T06:13:10.908Z,99199.05
2019-02-04T06:15:41.814Z,99200.80
2019-02-04T06:18:11.389Z,99206.40
2019-02-04T06:20:41.073Z,99213.67
2019-02-04T06:23:10.574Z,99220.63
2019-02-04T06:25:40.039Z,99211.84
2019-02-04T06:28:09.667Z,99212.60
2019-02-04T06:30:39.167Z,99212.45
2019-02-04T06:33:08.792Z,99219.27
2019-02-04T06:35:38.294Z,99218.02
2019-02-04T06:38:10.690Z,99227.95
2019-02-04T06:40:40.409Z,99216.67
2019-02-04T06:43:09.882Z,99226.55
2019-02-04T06:45:39.379Z,99232.73
2019-02-04T06:48:09.673Z,99230.51
2019-02-04T06:50:39.220Z,99232.28
2019-02-04T06:53:08.750Z,99247.88
2019-02-04T06:55:38.318Z,99247.88
2019-02-04T06:58:10.806Z,99250.90
2019-02-04T07:00:40.301Z,99249.75
2019-02-04T07:03:09.831Z,99248.25
2019-02-04T07:05:43.933Z,99248.80
2019-02-04T07:08:10.770Z,99248.80
2019-02-04T07:10:40.247Z,99254.34
2019-02-04T07:13:09.743Z,99251.70
2019-02-04T07:15:39.605Z,99256.95
2019-02-04T07:18:09.192Z,99292.24
2019-02-04T07:20:38.688Z,99264.77
2019-02-04T07:23:08.181Z,99264.77
2019-02-04T07:25:37.767Z,99269.12
2019-02-04T07:28:08.539Z,99278.88
2019-02-04T07:30:38.240Z,99280.69
2019-02-04T07:33:07.728Z,99280.69
2019-02-04T07:35:37.368Z,99275.61
2019-02-04T07:38:06.891Z,99270.92
2019-02-04T07:40:36.430Z,99279.47
2019-02-04T07:43:05.940Z,99279.47
2019-02-04T07:45:35.806Z,99284.45
2019-02-04T07:48:05.313Z,99279.41
2019-02-04T07:50:34.843Z,99277.39
2019-02-04T07:53:04.812Z,99269.77
2019-02-04T07:55:34.450Z,99270.87
2019-02-04T07:58:04.353Z,99267.82
2019-02-04T08:00:34.380Z,99267.09
2019-02-04T08:03:03.875Z,99271.13
2019-02-04T08:05:33.400Z,99273.06
2019-02-04T08:08:02.856Z,99279.39
2019-02-04T08:10:32.319Z,99285.34
2019-02-04T08:13:02.235Z,99283.25
2019-02-04T08:15:40.574Z,99291.52
2019-02-04T08:18:13.381Z,99293.31
2019-02-04T08:20:43.624Z,99295.30
2019-02-04T08:23:13.133Z,99294.28
2019-02-04T08:25:42.860Z,99293.73
2019-02-04T08:28:12.397Z,99294.27
2019-02-04T08:30:41.873Z,99296.38
2019-02-04T08:33:11.367Z,99301.27
2019-02-04T08:35:40.879Z,99301.27
2019-02-04T08:38:13.288Z,99304.69
2019-02-04T08:40:42.791Z,99301.20
2019-02-04T08:43:12.240Z,99305.09
2019-02-04T08:45:41.963Z,99309.71
2019-02-04T08:48:11.442Z,99308.30
2019-02-04T08:50:40.883Z,99316.09
2019-02-04T08:53:10.750Z,99314.27
2019-02-04T08:55:40.222Z,99312.42
2019-02-04T08:58:09.912Z,99313.25
2019-02-04T09:00:39.371Z,99311.41
2019-02-04T09:03:08.844Z,99318.50
2019-02-04T09:05:38.455Z,99321.86
2019-02-04T09:08:07.932Z,99328.31
2019-02-04T09:10:37.880Z,99328.30
2019-02-04T09:13:07.337Z,99326.35
2019-02-04T09:15:36.936Z,99320.95
2019-02-04T09:18:07.798Z,99317.47
2019-02-04T09:20:37.239Z,99318.29
2019-02-04T09:23:06.862Z,99322.89
2019-02-04T09:25:36.653Z,99322.67
2019-02-04T09:28:07.763Z,99329.20
2019-02-04T09:30:37.153Z,99322.86
2019-02-04T09:33:06.737Z,99319.54
2019-02-04T09:35:36.248Z,99323.00
2019-02-04T09:38:05.726Z,99324.46
2019-02-04T09:40:41.295Z,99323.28
2019-02-04T09:43:11.032Z,99319.06
2019-02-04T09:45:42.369Z,99325.66
2019-02-04T09:48:17.159Z,99328.81
2019-02-04T09:50:47.859Z,99326.44
2019-02-04T09:53:17.314Z,99327.50
2019-02-04T09:55:46.814Z,99323.09
2019-02-04T09:58:16.300Z,99324.08
2019-02-04T10:00:45.883Z,99322.08
2019-02-04T10:03:17.564Z,99319.79
2019-02-04T10:05:48.383Z,99326.81
2019-02-04T10:08:18.016Z,99323.48
2019-02-04T10:10:47.500Z,99318.56
2019-02-04T10:13:16.969Z,99319.12
2019-02-04T10:15:46.679Z,99315.72
2019-02-04T10:18:16.229Z,99314.98
2019-02-04T10:20:45.821Z,99308.01
2019-02-04T10:23:15.354Z,99301.32
2019-02-04T10:25:45.022Z,99305.41
2019-02-04T10:28:15.355Z,99301.55
2019-02-04T10:30:45.234Z,99295.40
2019-02-04T10:33:15.716Z,99301.52
2019-02-04T10:35:45.214Z,99297.54
2019-02-04T10:38:16.422Z,99297.47
2019-02-04T10:40:46.067Z,99296.14
2019-02-04T10:43:15.685Z,99288.80
2019-02-04T10:45:45.205Z,99285.25
2019-02-04T10:48:14.567Z,99280.08
2019-02-04T10:50:46.666Z,99285.41
2019-02-04T10:53:15.171Z,99284.23
2019-02-04T10:55:44.832Z,99276.30
2019-02-04T10:58:15.185Z,99272.20
2019-02-04T11:00:45.119Z,99268.06
2019-02-04T11:03:14.712Z,99271.34
2019-02-04T11:05:44.298Z,99276.36
2019-02-04T11:08:14.236Z,99273.10
2019-02-04T11:10:46.292Z,99273.69
2019-02-04T11:13:18.158Z,99264.06
2019-02-04T11:15:48.846Z,99267.63
2019-02-04T11:18:19.200Z,99262.88
2019-02-04T11:20:57.994Z,99259.45
2019-02-04T11:23:23.520Z,99254.98
2019-02-04T11:25:55.070Z,99254.84
2019-02-04T11:28:24.566Z,99254.84
2019-02-04T11:30:59.449Z,99259.50
2019-02-04T11:33:31.702Z,99250.95
2019-02-04T11:36:03.679Z,99250.83
2019-02-04T11:38:33.156Z,99247.14
2019-02-04T11:41:02.556Z,99246.13
2019-02-04T11:43:31.952Z,99245.98
2019-02-04T11:46:01.467Z,99239.00
2019-02-04T11:48:31.232Z,99236.70
2019-02-04T11:51:09.226Z,99241.28
2019-02-04T11:53:33.331Z,99229.38
2019-02-04T11:56:03.147Z,99230.27
2019-02-04T11:58:32.515Z,99226.30
2019-02-04T12:01:01.919Z,99229.06
2019-02-04T12:03:31.336Z,99222.36
2019-02-04T12:06:00.755Z,99217.62
2019-02-04T12:08:30.406Z,99215.94
2019-02-04T12:11:04.793Z,99205.25
2019-02-04T12:13:35.367Z,99206.92
2019-02-04T12:16:06.683Z,99201.31
2019-02-04T12:18:36.960Z,99190.47
2019-02-04T12:21:07.947Z,99198.42
2019-02-04T12:23:39.649Z,99197.58
2019-02-04T12:26:11.285Z,99196.16
2019-02-04T12:28:42.763Z,99203.08
2019-02-04T12:31:15.074Z,99196.67
2019-02-04T12:33:45.353Z,99199.69
2019-02-04T12:36:14.904Z,99198.89
2019-02-04T12:38:44.331Z,99182.92
2019-02-04T12:41:13.799Z,99178.17
2019-02-04T12:43:43.544Z,99173.11
2019-02-04T12:46:13.319Z,99173.11
2019-02-04T12:48:42.712Z,99163.92
2019-02-04T12:51:12.514Z,99153.42
2019-02-04T12:53:42.089Z,99152.61
2019-02-04T12:56:11.562Z,99141.75
2019-02-04T12:58:41.051Z,99137.83
2019-02-04T13:01:10.904Z,99135.70
2019-02-04T13:03:40.510Z,99141.81
2019-02-04T13:06:13.294Z,99138.80
2019-02-04T13:08:44.974Z,99147.33
2019-02-04T13:11:14.351Z,99132.53
2019-02-04T13:13:43.938Z,99126.13
2019-02-04T13:16:13.731Z,99119.00
2019-02-04T13:18:43.495Z,99119.48
2019-02-04T13:21:12.871Z,99111.30
2019-02-04T13:23:42.267Z,99110.05
2019-02-04T13:26:11.816Z,99107.44
2019-02-04T13:28:41.179Z,99106.30
2019-02-04T13:31:10.589Z,99099.70
2019-02-04T13:33:40.008Z,99103.77
2019-02-04T13:36:09.742Z,99093.22
2019-02-04T13:38:40.510Z,99093.69
2019-02-04T13:41:11.375Z,99093.58
2019-02-04T13:43:41.214Z,99076.26
2019-02-04T13:46:10.599Z,99081.23
2019-02-04T13:48:40.382Z,99084.45
2019-02-04T13:51:09.780Z,99081.23
2019-02-04T13:53:39.570Z,99068.58
2019-02-04T13:56:09.076Z,99080.52
2019-02-04T13:58:38.685Z,99083.11
2019-02-04T14:01:08.294Z,99074.58
2019-02-04T14:03:37.800Z,99078.18
2019-02-04T14:06:09.403Z,99076.71
2019-02-04T14:08:39.071Z,99068.19
2019-02-04T14:11:09.773Z,99064.94
2019-02-04T14:13:39.814Z,99059.91
2019-02-04T14:16:09.745Z,99069.80
2019-02-04T14:18:39.454Z,99065.74
2019-02-04T14:21:09.160Z,99065.38
2019-02-04T14:23:38.985Z,99058.17
2019-02-04T14:26:08.575Z,99062.30
2019-02-04T14:28:38.401Z,99065.39
2019-02-04T14:31:07.900Z,99058.41
2019-02-04T14:33:37.500Z,99063.69
2019-02-04T14:36:07.114Z,99049.61
2019-02-04T14:38:37.127Z,99056.87
2019-02-04T14:41:06.878Z,99058.78
2019-02-04T14:43:49.008Z,99056.53
2019-02-04T14:46:46.645Z,99058.86
2019-02-04T14:49:37.923Z,99065.27
2019-02-04T14:52:51.358Z,99074.86
2019-02-04T14:55:36.237Z,99088.84
2019-02-04T14:58:49.973Z,99086.41
2019-02-04T15:02:13.261Z,99091.02
2019-02-04T15:05:51.249Z,99088.53
2019-02-04T15:08:39.699Z,99080.39
2019-02-04T15:11:37.318Z,99087.96
2019-02-04T15:14:59.192Z,99087.05
2019-02-04T15:18:11.707Z,99091.43
2019-02-04T15:21:15.729Z,99092.39
2019-02-04T15:24:10.838Z,99093.41
2019-02-04T15:27:10.446Z,99087.23
2019-02-04T15:29:53.428Z,99093.61
2019-02-04T15:33:11.293Z,99090.16
2019-02-04T15:36:19.515Z,99092.84
2019-02-04T15:39:31.519Z,99095.05
2019-02-04T15:42:40.800Z,99085.00
2019-02-04T15:45:56.764Z,99093.14
2019-02-04T15:48:34.527Z,99095.29
2019-02-04T15:51:15.625Z,99094.59
2019-02-04T15:53:45.138Z,99096.64
2019-02-04T15:56:14.952Z,99090.71
2019-02-04T15:58:44.578Z,99090.25
2019-02-04T16:01:14.330Z,99091.84
2019-02-04T16:03:44.017Z,99098.81
2019-02-04T16:06:13.485Z,99092.38
2019-02-04T16:08:42.994Z,99092.34
2019-02-04T16:11:12.493Z,99089.94
2019-02-04T16:13:42.207Z,99093.95
2019-02-04T16:16:11.737Z,99092.91
2019-02-04T16:18:41.165Z,99092.08
2019-02-04T16:21:10.636Z,99083.92
2019-02-04T16:23:40.096Z,99082.69
2019-02-04T16:26:09.560Z,99081.20
2019-02-04T16:28:39.057Z,99081.77
2019-02-04T16:31:08.480Z,99090.00
2019-02-04T16:33:37.891Z,99087.96
2019-02-04T16:36:07.436Z,99089.44
2019-02-04T16:38:36.858Z,99085.67
2019-02-04T16:41:06.243Z,99084.05
2019-02-04T16:43:35.749Z,99084.29
2019-02-04T16:46:05.196Z,99086.05
2019-02-04T16:48:34.731Z,99086.37
2019-02-04T16:51:11.656Z,99084.34
2019-02-04T16:53:35.231Z,99086.79
2019-02-04T16:56:04.753Z,99084.29
2019-02-04T16:58:34.209Z,99087.68
2019-02-04T17:01:03.714Z,99096.13
2019-02-04T17:03:33.290Z,99088.66
2019-02-04T17:06:03.024Z,99095.75
2019-02-04T17:08:32.941Z,99091.28
2019-02-04T17:11:02.345Z,99108.36
2019-02-04T17:13:31.830Z,99107.70
2019-02-04T17:16:01.504Z,99100.95
2019-02-04T17:18:31.188Z,99101.41
2019-02-04T17:21:00.654Z,99109.23
2019-02-04T17:23:30.583Z,99107.02
2019-02-04T17:26:00.049Z,99107.48
2019-02-04T17:28:29.564Z,99103.66
2019-02-04T17:30:59.094Z,99100.06
2019-02-04T17:33:28.656Z,99103.00
2019-02-04T17:35:58.172Z,99097.80
2019-02-04T17:38:27.651Z,99095.13
2019-02-04T17:40:57.207Z,99093.21
2019-02-04T17:43:26.912Z,99093.01
2019-02-04T17:45:56.350Z,99088.98
2019-02-04T17:48:26.083Z,99082.90
2019-02-04T17:50:55.847Z,99081.02
2019-02-04T17:53:33.933Z,99092.92
2019-02-04T17:55:56.829Z,99093.55
2019-02-04T17:58:26.433Z,99093.84
2019-02-04T18:00:55.946Z,99094.02
2019-02-04T18:03:25.402Z,99099.72
2019-02-04T18:05:55.401Z,99100.97
2019-02-04T18:08:24.849Z,99094.27
2019-02-04T18:10:54.337Z,99087.36
2019-02-04T18:13:23.919Z,99088.44
2019-02-04T18:15:53.702Z,99089.56
2019-02-04T18:18:23.194Z,99084.75
2019-02-04T18:20:52.947Z,99086.20
2019-02-04T18:23:22.657Z,99084.45
2019-02-04T18:25:52.132Z,99091.52
2019-02-04T18:28:21.638Z,99092.73
2019-02-04T18:30:51.103Z,99092.47
2019-02-04T18:33:20.565Z,99091.22
2019-02-04T18:35:50.139Z,99092.84
2019-02-04T18:38:19.581Z,99093.92
2019-02-04T18:40:49.570Z,99096.54
2019-02-04T18:43:19.014Z,99105.41
2019-02-04T18:45:48.802Z,99100.50
2019-02-04T18:48:18.305Z,99098.28
2019-02-04T18:50:48.618Z,99107.74
2019-02-04T18:53:18.111Z,99099.09
2019-02-04T18:55:47.566Z,99105.27
2019-02-04T18:58:17.059Z,99094.94
2019-02-04T19:00:46.891Z,99093.39
2019-02-04T19:03:17.565Z,99092.06
2019-02-04T19:05:47.228Z,99091.09
2019-02-04T19:08:16.993Z,99097.30
2019-02-04T19:10:46.577Z,99091.69
2019-02-04T19:13:16.082Z,99098.58
2019-02-04T19:15:45.807Z,99102.59
2019-02-04T19:18:18.793Z,99108.51
2019-02-04T19:20:47.967Z,99107.09
2019-02-04T19:23:17.527Z,99100.66
2019-02-04T19:25:47.039Z,99095.67
2019-02-04T19:28:16.486Z,99095.97
2019-02-04T19:30:56.440Z,99099.55
2019-02-04T19:33:25.909Z,99107.69
2019-02-04T19:35:57.025Z,99103.28
2019-02-04T19:38:26.564Z,99110.27
2019-02-04T19:40:56.426Z,99103.09
2019-02-04T19:43:25.909Z,99110.31
2019-02-04T19:45:55.371Z,99112.49
2019-02-04T19:48:24.829Z,99113.51
2019-02-04T19:50:54.336Z,99117.21
2019-02-04T19:53:23.818Z,99119.74
2019-02-04T19:55:53.710Z,99121.95
2019-02-04T19:58:23.257Z,99126.44
2019-02-04T20:00:52.756Z,99127.47
2019-02-04T20:03:22.414Z,99123.71
2019-02-04T20:05:51.875Z,99119.72
2019-02-04T20:08:21.358Z,99125.05
2019-02-04T20:10:51.195Z,99127.70
2019-02-04T20:13:20.685Z,99126.37
2019-02-04T20:15:50.140Z,99129.84
2019-02-04T20:18:19.634Z,99126.58
2019-02-04T20:20:49.105Z,99128.02
2019-02-04T20:23:18.560Z,99122.08
2019-02-04T20:25:48.433Z,99122.19
2019-02-04T20:28:17.898Z,99116.19
2019-02-04T20:30:47.389Z,99117.52
2019-02-04T20:33:16.950Z,99122.61
2019-02-04T20:35:46.450Z,99118.84
2019-02-04T20:38:15.910Z,99118.64
2019-02-04T20:40:45.750Z,99119.78
2019-02-04T20:43:15.235Z,99128.14
2019-02-04T20:45:44.716Z,99131.22
2019-02-04T20:48:15.704Z,99132.73
2019-02-04T20:50:46.701Z,99131.48
2019-02-04T20:53:16.393Z,99127.92
2019-02-04T20:55:46.043Z,99135.08
2019-02-04T20:58:15.589Z,99139.97
2019-02-04T21:00:45.065Z,99138.04
2019-02-04T21:03:14.614Z,99141.00
2019-02-04T21:05:44.126Z,99136.20
2019-02-04T21:08:13.612Z,99140.61
2019-02-04T21:10:43.079Z,99143.56
2019-02-04T21:13:12.701Z,99133.92
2019-02-04T21:15:42.264Z,99137.73
2019-02-04T21:18:11.900Z,99135.51
2019-02-04T21:20:41.367Z,99138.67
2019-02-04T21:23:10.921Z,99129.56
2019-02-04T21:25:40.377Z,99133.45
2019-02-04T21:28:09.839Z,99129.98
2019-02-04T21:30:41.378Z,99123.77
2019-02-04T21:33:10.975Z,99127.03
2019-02-04T21:35:40.800Z,99120.00
2019-02-04T21:38:10.651Z,99122.86
2019-02-04T21:40:40.231Z,99121.62
2019-02-04T21:43:09.945Z,99131.41
2019-02-04T21:45:39.440Z,99127.73
2019-02-04T21:48:10.139Z,99118.63
2019-02-04T21:50:39.817Z,99124.48
2019-02-04T21:53:09.722Z,99116.52
2019-02-04T21:55:39.189Z,99121.98
2019-02-04T21:58:10.285Z,99121.78
2019-02-04T22:00:40.954Z,99121.78
2019-02-04T22:03:10.621Z,99125.40
2019-02-04T22:05:40.208Z,99125.40
2019-02-04T22:08:09.804Z,99130.51
2019-02-04T22:10:39.728Z,99130.51
2019-02-04T22:13:09.205Z,99129.50
2019-02-04T22:15:38.953Z,99129.50
2019-02-04T22:18:08.654Z,99114.56
2019-02-04T22:20:38.512Z,99118.25
2019-02-04T22:23:08.017Z,99111.22
2019-02-04T22:25:37.581Z,99117.52
2019-02-04T22:28:07.311Z,99117.52
2019-02-04T22:30:36.793Z,99112.55
2019-02-04T22:33:06.373Z,99112.33
2019-02-04T22:35:35.863Z,99112.33
2019-02-04T22:38:05.983Z,99112.33
2019-02-04T22:40:35.614Z,99114.36
2019-02-04T22:43:05.098Z,99117.22
2019-02-04T22:45:34.720Z,99128.41
2019-02-04T22:48:04.525Z,99128.41
2019-02-04T22:50:33.990Z,99126.30
2019-02-04T22:53:03.641Z,99126.91
2019-02-04T22:55:33.318Z,99124.46
2019-02-04T22:58:02.814Z,99124.46
2019-02-04T23:01:31.574Z,99123.11
2019-02-04T23:04:01.031Z,99117.30
2019-02-04T23:06:30.739Z,99117.30
2019-02-04T23:09:00.687Z,99120.34
2019-02-04T23:11:30.298Z,99130.27
2019-02-04T23:13:59.770Z,99130.27
2019-02-04T23:16:29.247Z,99125.16
2019-02-04T23:18:58.751Z,99125.66
2019-02-04T23:21:28.209Z,99125.66
2019-02-04T23:23:57.987Z,99129.14
2019-02-04T23:26:27.505Z,99129.14
2019-02-04T23:28:57.007Z,99130.07
2019-02-04T23:31:26.489Z,99136.20
2019-02-04T23:33:55.974Z,99138.64
2019-02-04T23:36:25.958Z,99145.23
2019-02-04T23:38:55.491Z,99147.36
2019-02-04T23:41:24.965Z,99156.64
2019-02-04T23:43:54.597Z,99148.74
2019-02-04T23:46:24.198Z,99147.95
2019-02-04T23:48:53.713Z,99134.02
2019-02-04T23:51:23.309Z,99133.60
2019-02-04T23:53:53.285Z,99128.22
2019-02-04T23:56:22.769Z,99120.34
2019-02-04T23:58:52.262Z,99117.61
